sensor_id;sensor_type;location;lat;lon;timestamp;P1;durP1;ratioP1;P2;durP2;ratioP2
36351;SDS011;22382;44.768;17.206;2023-02-14T00:01:17;26.27;;;13.75;;
36351;SDS011;22382;44.768;17.206;2023-02-14T00:03:45;30.38;;;14.77;;
36351;SDS011;22382;44.768;17.206;2023-02-14T00:06:14;27.73;;;14.43;;
36351;SDS011;22382;44.768;17.206;2023-02-14T00:08:42;30.10;;;14.77;;
36351;SDS011;22382;44.768;17.206;2023-02-14T00:11:10;31.38;;;15.30;;
36351;SDS011;22382;44.768;17.206;2023-02-14T00:13:38;31.60;;;16.23;;
36351;SDS011;22382;44.768;17.206;2023-02-14T00:16:25;30.60;;;15.23;;
36351;SDS011;22382;44.768;17.206;2023-02-14T00:18:53;26.55;;;14.40;;
36351;SDS011;22382;44.768;17.206;2023-02-14T00:21:29;26.67;;;14.52;;
36351;SDS011;22382;44.768;17.206;2023-02-14T00:23:57;27.40;;;14.20;;
36351;SDS011;22382;44.768;17.206;2023-02-14T00:26:24;25.52;;;14.45;;
36351;SDS011;22382;44.768;17.206;2023-02-14T00:28:52;25.58;;;13.25;;
36351;SDS011;22382;44.768;17.206;2023-02-14T00:31:19;26.48;;;14.30;;
36351;SDS011;22382;44.768;17.206;2023-02-14T00:33:46;28.02;;;14.68;;
36351;SDS011;22382;44.768;17.206;2023-02-14T00:36:13;25.70;;;14.18;;
36351;SDS011;22382;44.768;17.206;2023-02-14T00:38:43;28.60;;;14.50;;
36351;SDS011;22382;44.768;17.206;2023-02-14T00:41:10;27.63;;;14.65;;
36351;SDS011;22382;44.768;17.206;2023-02-14T00:43:45;27.40;;;13.05;;
36351;SDS011;22382;44.768;17.206;2023-02-14T00:46:13;25.55;;;13.90;;
36351;SDS011;22382;44.768;17.206;2023-02-14T00:48:40;27.80;;;13.60;;
36351;SDS011;22382;44.768;17.206;2023-02-14T00:51:08;46.22;;;21.15;;
36351;SDS011;22382;44.768;17.206;2023-02-14T00:53:35;49.33;;;21.42;;
36351;SDS011;22382;44.768;17.206;2023-02-14T00:56:03;47.00;;;23.80;;
36351;SDS011;22382;44.768;17.206;2023-02-14T00:58:30;52.95;;;25.52;;
36351;SDS011;22382;44.768;17.206;2023-02-14T01:00:58;60.05;;;30.02;;
36351;SDS011;22382;44.768;17.206;2023-02-14T01:03:26;58.00;;;29.58;;
36351;SDS011;22382;44.768;17.206;2023-02-14T01:05:53;61.00;;;30.30;;
36351;SDS011;22382;44.768;17.206;2023-02-14T01:08:20;46.60;;;26.17;;
36351;SDS011;22382;44.768;17.206;2023-02-14T01:10:47;37.92;;;19.50;;
36351;SDS011;22382;44.768;17.206;2023-02-14T01:13:15;41.63;;;19.85;;
36351;SDS011;22382;44.768;17.206;2023-02-14T01:15:43;35.25;;;19.23;;
36351;SDS011;22382;44.768;17.206;2023-02-14T01:18:13;35.92;;;19.73;;
36351;SDS011;22382;44.768;17.206;2023-02-14T01:20:41;39.00;;;21.65;;
36351;SDS011;22382;44.768;17.206;2023-02-14T01:23:08;47.00;;;23.15;;
36351;SDS011;22382;44.768;17.206;2023-02-14T01:25:36;51.40;;;25.65;;
36351;SDS011;22382;44.768;17.206;2023-02-14T01:28:05;52.50;;;28.67;;
36351;SDS011;22382;44.768;17.206;2023-02-14T01:30:32;43.80;;;23.60;;
36351;SDS011;22382;44.768;17.206;2023-02-14T01:32:59;37.47;;;21.10;;
36351;SDS011;22382;44.768;17.206;2023-02-14T01:35:26;29.77;;;16.52;;
36351;SDS011;22382;44.768;17.206;2023-02-14T01:37:53;31.88;;;15.27;;
36351;SDS011;22382;44.768;17.206;2023-02-14T01:40:20;25.08;;;13.38;;
36351;SDS011;22382;44.768;17.206;2023-02-14T01:42:48;23.70;;;12.63;;
36351;SDS011;22382;44.768;17.206;2023-02-14T01:45:19;22.17;;;12.60;;
36351;SDS011;22382;44.768;17.206;2023-02-14T01:47:49;23.30;;;12.55;;
36351;SDS011;22382;44.768;17.206;2023-02-14T01:50:20;24.27;;;13.35;;
36351;SDS011;22382;44.768;17.206;2023-02-14T01:52:56;26.00;;;13.82;;
36351;SDS011;22382;44.768;17.206;2023-02-14T01:55:28;25.63;;;13.45;;
36351;SDS011;22382;44.768;17.206;2023-02-14T01:58:01;25.13;;;12.95;;
36351;SDS011;22382;44.768;17.206;2023-02-14T02:00:36;21.95;;;12.30;;
36351;SDS011;22382;44.768;17.206;2023-02-14T02:08:53;23.23;;;12.45;;
36351;SDS011;22382;44.768;17.206;2023-02-14T02:11:26;21.92;;;12.20;;
36351;SDS011;22382;44.768;17.206;2023-02-14T02:13:54;22.67;;;12.15;;
36351;SDS011;22382;44.768;17.206;2023-02-14T02:19:26;21.58;;;11.10;;
36351;SDS011;22382;44.768;17.206;2023-02-14T02:33:12;19.00;;;10.90;;
36351;SDS011;22382;44.768;17.206;2023-02-14T02:38:52;23.80;;;12.02;;
36351;SDS011;22382;44.768;17.206;2023-02-14T02:44:03;22.30;;;10.73;;
36351;SDS011;22382;44.768;17.206;2023-02-14T02:46:54;17.63;;;9.85;;
36351;SDS011;22382;44.768;17.206;2023-02-14T02:49:52;19.92;;;10.75;;
36351;SDS011;22382;44.768;17.206;2023-02-14T02:55:41;18.20;;;10.60;;
36351;SDS011;22382;44.768;17.206;2023-02-14T02:58:43;23.15;;;11.52;;
36351;SDS011;22382;44.768;17.206;2023-02-14T03:01:19;22.80;;;12.30;;
36351;SDS011;22382;44.768;17.206;2023-02-14T03:03:53;25.48;;;13.45;;
36351;SDS011;22382;44.768;17.206;2023-02-14T03:06:44;26.55;;;15.00;;
36351;SDS011;22382;44.768;17.206;2023-02-14T03:11:47;30.58;;;16.65;;
36351;SDS011;22382;44.768;17.206;2023-02-14T03:14:25;35.05;;;19.23;;
36351;SDS011;22382;44.768;17.206;2023-02-14T03:17:35;29.30;;;17.33;;
36351;SDS011;22382;44.768;17.206;2023-02-14T03:20:22;29.27;;;16.42;;
36351;SDS011;22382;44.768;17.206;2023-02-14T03:28:46;35.63;;;18.00;;
36351;SDS011;22382;44.768;17.206;2023-02-14T03:31:23;34.75;;;18.63;;
36351;SDS011;22382;44.768;17.206;2023-02-14T03:33:55;32.05;;;17.80;;
36351;SDS011;22382;44.768;17.206;2023-02-14T03:41:53;38.63;;;17.73;;
36351;SDS011;22382;44.768;17.206;2023-02-14T03:44:31;32.28;;;17.63;;
36351;SDS011;22382;44.768;17.206;2023-02-14T03:47:03;31.00;;;17.33;;
36351;SDS011;22382;44.768;17.206;2023-02-14T03:49:42;30.45;;;15.75;;
36351;SDS011;22382;44.768;17.206;2023-02-14T03:54:41;30.85;;;16.52;;
36351;SDS011;22382;44.768;17.206;2023-02-14T03:57:12;27.48;;;15.80;;
36351;SDS011;22382;44.768;17.206;2023-02-14T03:59:41;29.15;;;15.35;;
36351;SDS011;22382;44.768;17.206;2023-02-14T04:02:29;25.48;;;15.30;;
36351;SDS011;22382;44.768;17.206;2023-02-14T04:05:00;20.20;;;10.77;;
36351;SDS011;22382;44.768;17.206;2023-02-14T04:07:32;19.52;;;11.18;;
36351;SDS011;22382;44.768;17.206;2023-02-14T04:10:14;17.85;;;9.60;;
36351;SDS011;22382;44.768;17.206;2023-02-14T04:12:42;18.83;;;9.73;;
36351;SDS011;22382;44.768;17.206;2023-02-14T04:15:10;19.30;;;10.02;;
36351;SDS011;22382;44.768;17.206;2023-02-14T04:17:37;17.52;;;10.30;;
36351;SDS011;22382;44.768;17.206;2023-02-14T04:20:23;21.45;;;12.75;;
36351;SDS011;22382;44.768;17.206;2023-02-14T04:22:51;26.35;;;12.55;;
36351;SDS011;22382;44.768;17.206;2023-02-14T04:25:19;20.98;;;12.73;;
36351;SDS011;22382;44.768;17.206;2023-02-14T04:27:47;23.38;;;13.23;;
36351;SDS011;22382;44.768;17.206;2023-02-14T04:30:14;25.00;;;13.05;;
36351;SDS011;22382;44.768;17.206;2023-02-14T04:32:43;26.70;;;14.77;;
36351;SDS011;22382;44.768;17.206;2023-02-14T04:35:10;25.10;;;14.00;;
36351;SDS011;22382;44.768;17.206;2023-02-14T04:37:38;29.30;;;16.60;;
36351;SDS011;22382;44.768;17.206;2023-02-14T04:40:06;33.50;;;18.10;;
36351;SDS011;22382;44.768;17.206;2023-02-14T04:42:34;36.88;;;18.73;;
36351;SDS011;22382;44.768;17.206;2023-02-14T04:45:01;35.65;;;17.70;;
36351;SDS011;22382;44.768;17.206;2023-02-14T04:47:29;32.75;;;16.65;;
36351;SDS011;22382;44.768;17.206;2023-02-14T04:49:56;28.42;;;17.23;;
36351;SDS011;22382;44.768;17.206;2023-02-14T04:52:24;26.13;;;17.58;;
36351;SDS011;22382;44.768;17.206;2023-02-14T04:54:51;33.35;;;16.17;;
36351;SDS011;22382;44.768;17.206;2023-02-14T04:57:18;23.30;;;12.48;;
36351;SDS011;22382;44.768;17.206;2023-02-14T04:59:45;23.00;;;12.43;;
36351;SDS011;22382;44.768;17.206;2023-02-14T05:02:12;19.05;;;11.57;;
36351;SDS011;22382;44.768;17.206;2023-02-14T05:04:39;20.58;;;11.10;;
36351;SDS011;22382;44.768;17.206;2023-02-14T05:07:06;20.75;;;10.70;;
36351;SDS011;22382;44.768;17.206;2023-02-14T05:09:34;17.83;;;10.20;;
36351;SDS011;22382;44.768;17.206;2023-02-14T05:12:01;18.65;;;10.32;;
36351;SDS011;22382;44.768;17.206;2023-02-14T05:14:28;16.63;;;10.07;;
36351;SDS011;22382;44.768;17.206;2023-02-14T05:16:55;17.77;;;10.82;;
36351;SDS011;22382;44.768;17.206;2023-02-14T05:19:23;18.95;;;10.48;;
36351;SDS011;22382;44.768;17.206;2023-02-14T05:21:50;19.02;;;10.23;;
36351;SDS011;22382;44.768;17.206;2023-02-14T05:24:17;24.52;;;13.98;;
36351;SDS011;22382;44.768;17.206;2023-02-14T05:26:44;31.55;;;16.58;;
36351;SDS011;22382;44.768;17.206;2023-02-14T05:29:12;32.45;;;18.42;;
36351;SDS011;22382;44.768;17.206;2023-02-14T05:31:39;35.75;;;19.23;;
36351;SDS011;22382;44.768;17.206;2023-02-14T05:34:06;32.92;;;18.67;;
36351;SDS011;22382;44.768;17.206;2023-02-14T05:36:35;34.78;;;18.17;;
36351;SDS011;22382;44.768;17.206;2023-02-14T05:39:03;37.03;;;20.40;;
36351;SDS011;22382;44.768;17.206;2023-02-14T05:41:30;29.98;;;18.77;;
36351;SDS011;22382;44.768;17.206;2023-02-14T05:43:57;36.80;;;19.30;;
36351;SDS011;22382;44.768;17.206;2023-02-14T05:46:24;35.03;;;18.85;;
36351;SDS011;22382;44.768;17.206;2023-02-14T05:48:52;29.15;;;16.05;;
36351;SDS011;22382;44.768;17.206;2023-02-14T05:51:19;31.05;;;16.10;;
36351;SDS011;22382;44.768;17.206;2023-02-14T05:53:46;31.98;;;17.70;;
36351;SDS011;22382;44.768;17.206;2023-02-14T05:56:13;30.05;;;16.63;;
36351;SDS011;22382;44.768;17.206;2023-02-14T05:58:41;24.38;;;14.55;;
36351;SDS011;22382;44.768;17.206;2023-02-14T06:01:08;20.55;;;13.75;;
36351;SDS011;22382;44.768;17.206;2023-02-14T06:03:35;22.70;;;12.25;;
36351;SDS011;22382;44.768;17.206;2023-02-14T06:06:03;25.35;;;14.18;;
36351;SDS011;22382;44.768;17.206;2023-02-14T06:08:30;29.98;;;15.75;;
36351;SDS011;22382;44.768;17.206;2023-02-14T06:10:58;24.10;;;14.75;;
36351;SDS011;22382;44.768;17.206;2023-02-14T06:13:25;29.20;;;16.60;;
36351;SDS011;22382;44.768;17.206;2023-02-14T06:15:52;29.10;;;16.15;;
36351;SDS011;22382;44.768;17.206;2023-02-14T06:18:20;35.20;;;21.15;;
36351;SDS011;22382;44.768;17.206;2023-02-14T06:20:53;36.40;;;19.88;;
36351;SDS011;22382;44.768;17.206;2023-02-14T06:23:21;28.83;;;17.63;;
36351;SDS011;22382;44.768;17.206;2023-02-14T06:25:48;32.42;;;17.65;;
36351;SDS011;22382;44.768;17.206;2023-02-14T06:28:15;29.05;;;16.17;;
36351;SDS011;22382;44.768;17.206;2023-02-14T06:30:42;27.45;;;14.43;;
36351;SDS011;22382;44.768;17.206;2023-02-14T06:33:12;25.05;;;14.68;;
36351;SDS011;22382;44.768;17.206;2023-02-14T06:35:39;23.10;;;14.35;;
36351;SDS011;22382;44.768;17.206;2023-02-14T06:38:06;30.48;;;15.07;;
36351;SDS011;22382;44.768;17.206;2023-02-14T06:40:33;25.42;;;13.95;;
36351;SDS011;22382;44.768;17.206;2023-02-14T06:43:00;27.30;;;14.77;;
36351;SDS011;22382;44.768;17.206;2023-02-14T06:45:27;27.52;;;15.60;;
36351;SDS011;22382;44.768;17.206;2023-02-14T06:47:54;25.77;;;13.98;;
36351;SDS011;22382;44.768;17.206;2023-02-14T06:50:21;25.98;;;15.02;;
36351;SDS011;22382;44.768;17.206;2023-02-14T06:52:49;27.67;;;14.07;;
36351;SDS011;22382;44.768;17.206;2023-02-14T06:55:17;22.92;;;13.48;;
36351;SDS011;22382;44.768;17.206;2023-02-14T06:57:44;24.67;;;13.52;;
36351;SDS011;22382;44.768;17.206;2023-02-14T07:00:11;21.95;;;12.77;;
36351;SDS011;22382;44.768;17.206;2023-02-14T07:02:40;18.38;;;11.20;;
36351;SDS011;22382;44.768;17.206;2023-02-14T07:05:07;22.27;;;12.65;;
36351;SDS011;22382;44.768;17.206;2023-02-14T07:07:34;28.42;;;12.85;;
36351;SDS011;22382;44.768;17.206;2023-02-14T07:10:01;26.60;;;13.38;;
36351;SDS011;22382;44.768;17.206;2023-02-14T07:12:29;24.15;;;12.82;;
36351;SDS011;22382;44.768;17.206;2023-02-14T07:14:56;29.25;;;17.02;;
36351;SDS011;22382;44.768;17.206;2023-02-14T07:17:23;34.50;;;19.60;;
36351;SDS011;22382;44.768;17.206;2023-02-14T07:19:50;34.65;;;20.83;;
36351;SDS011;22382;44.768;17.206;2023-02-14T07:22:17;36.00;;;20.25;;
36351;SDS011;22382;44.768;17.206;2023-02-14T07:24:44;34.22;;;18.70;;
36351;SDS011;22382;44.768;17.206;2023-02-14T07:27:11;41.00;;;18.98;;
36351;SDS011;22382;44.768;17.206;2023-02-14T07:29:38;27.35;;;17.08;;
36351;SDS011;22382;44.768;17.206;2023-02-14T07:32:06;28.30;;;15.73;;
36351;SDS011;22382;44.768;17.206;2023-02-14T07:34:33;24.67;;;14.07;;
36351;SDS011;22382;44.768;17.206;2023-02-14T07:37:01;24.92;;;15.85;;
36351;SDS011;22382;44.768;17.206;2023-02-14T07:39:28;23.25;;;14.00;;
36351;SDS011;22382;44.768;17.206;2023-02-14T07:41:55;26.08;;;14.80;;
36351;SDS011;22382;44.768;17.206;2023-02-14T07:44:22;22.85;;;13.35;;
36351;SDS011;22382;44.768;17.206;2023-02-14T07:46:50;21.77;;;12.85;;
36351;SDS011;22382;44.768;17.206;2023-02-14T07:49:17;23.67;;;13.60;;
36351;SDS011;22382;44.768;17.206;2023-02-14T07:51:44;28.73;;;15.50;;
36351;SDS011;22382;44.768;17.206;2023-02-14T07:54:12;31.63;;;16.92;;
36351;SDS011;22382;44.768;17.206;2023-02-14T07:56:39;29.80;;;16.73;;
36351;SDS011;22382;44.768;17.206;2023-02-14T07:59:06;32.25;;;19.58;;
36351;SDS011;22382;44.768;17.206;2023-02-14T08:01:33;36.05;;;18.90;;
36351;SDS011;22382;44.768;17.206;2023-02-14T08:04:00;39.25;;;20.30;;
36351;SDS011;22382;44.768;17.206;2023-02-14T08:06:27;40.63;;;22.88;;
36351;SDS011;22382;44.768;17.206;2023-02-14T08:08:54;38.75;;;21.13;;
36351;SDS011;22382;44.768;17.206;2023-02-14T08:11:21;35.47;;;19.42;;
36351;SDS011;22382;44.768;17.206;2023-02-14T08:14:07;39.05;;;20.40;;
36351;SDS011;22382;44.768;17.206;2023-02-14T08:16:34;34.85;;;19.38;;
36351;SDS011;22382;44.768;17.206;2023-02-14T08:19:03;39.22;;;22.73;;
36351;SDS011;22382;44.768;17.206;2023-02-14T08:21:30;44.30;;;22.00;;
36351;SDS011;22382;44.768;17.206;2023-02-14T08:23:58;33.28;;;21.15;;
36351;SDS011;22382;44.768;17.206;2023-02-14T08:26:25;38.72;;;22.30;;
36351;SDS011;22382;44.768;17.206;2023-02-14T08:28:52;44.10;;;22.02;;
36351;SDS011;22382;44.768;17.206;2023-02-14T08:31:24;38.38;;;21.15;;
36351;SDS011;22382;44.768;17.206;2023-02-14T08:34:01;33.53;;;18.65;;
36351;SDS011;22382;44.768;17.206;2023-02-14T08:36:29;31.75;;;18.15;;
36351;SDS011;22382;44.768;17.206;2023-02-14T08:38:56;28.88;;;16.35;;
36351;SDS011;22382;44.768;17.206;2023-02-14T08:41:24;30.83;;;17.80;;
36351;SDS011;22382;44.768;17.206;2023-02-14T08:43:51;46.08;;;27.42;;
36351;SDS011;22382;44.768;17.206;2023-02-14T08:46:18;53.08;;;32.15;;
36351;SDS011;22382;44.768;17.206;2023-02-14T08:48:45;63.25;;;36.72;;
36351;SDS011;22382;44.768;17.206;2023-02-14T08:51:13;58.60;;;37.13;;
36351;SDS011;22382;44.768;17.206;2023-02-14T08:53:41;62.10;;;38.95;;
36351;SDS011;22382;44.768;17.206;2023-02-14T08:56:09;59.70;;;35.92;;
36351;SDS011;22382;44.768;17.206;2023-02-14T08:58:39;53.70;;;32.88;;
36351;SDS011;22382;44.768;17.206;2023-02-14T09:01:08;52.65;;;30.80;;
36351;SDS011;22382;44.768;17.206;2023-02-14T09:03:43;40.47;;;24.67;;
36351;SDS011;22382;44.768;17.206;2023-02-14T09:06:12;39.58;;;23.23;;
36351;SDS011;22382;44.768;17.206;2023-02-14T09:08:43;38.07;;;23.70;;
36351;SDS011;22382;44.768;17.206;2023-02-14T09:11:17;43.47;;;25.27;;
36351;SDS011;22382;44.768;17.206;2023-02-14T09:13:48;46.38;;;29.20;;
36351;SDS011;22382;44.768;17.206;2023-02-14T09:16:17;46.65;;;27.85;;
36351;SDS011;22382;44.768;17.206;2023-02-14T09:18:45;46.22;;;27.05;;
36351;SDS011;22382;44.768;17.206;2023-02-14T09:21:14;45.35;;;28.45;;
36351;SDS011;22382;44.768;17.206;2023-02-14T09:23:43;43.92;;;27.08;;
36351;SDS011;22382;44.768;17.206;2023-02-14T09:26:13;48.28;;;30.52;;
36351;SDS011;22382;44.768;17.206;2023-02-14T09:28:42;48.88;;;30.20;;
36351;SDS011;22382;44.768;17.206;2023-02-14T09:31:27;50.38;;;31.05;;
36351;SDS011;22382;44.768;17.206;2023-02-14T09:33:55;49.83;;;29.25;;
36351;SDS011;22382;44.768;17.206;2023-02-14T09:36:22;50.55;;;27.23;;
36351;SDS011;22382;44.768;17.206;2023-02-14T09:38:49;44.75;;;27.23;;
36351;SDS011;22382;44.768;17.206;2023-02-14T09:46:29;39.38;;;24.20;;
36351;SDS011;22382;44.768;17.206;2023-02-14T09:49:00;38.92;;;24.23;;
36351;SDS011;22382;44.768;17.206;2023-02-14T09:51:28;37.75;;;23.77;;
36351;SDS011;22382;44.768;17.206;2023-02-14T09:54:01;37.97;;;22.70;;
36351;SDS011;22382;44.768;17.206;2023-02-14T09:59:30;40.97;;;23.92;;
36351;SDS011;22382;44.768;17.206;2023-02-14T10:02:08;41.35;;;23.27;;
36351;SDS011;22382;44.768;17.206;2023-02-14T10:07:40;40.33;;;22.20;;
36351;SDS011;22382;44.768;17.206;2023-02-14T10:10:26;35.78;;;22.02;;
36351;SDS011;22382;44.768;17.206;2023-02-14T10:15:40;32.42;;;21.65;;
36351;SDS011;22382;44.768;17.206;2023-02-14T10:20:57;35.17;;;21.95;;
36351;SDS011;22382;44.768;17.206;2023-02-14T10:26:15;34.75;;;20.15;;
36351;SDS011;22382;44.768;17.206;2023-02-14T10:28:53;30.63;;;19.50;;
36351;SDS011;22382;44.768;17.206;2023-02-14T10:31:24;31.92;;;19.55;;
36351;SDS011;22382;44.768;17.206;2023-02-14T10:33:57;32.33;;;19.80;;
36351;SDS011;22382;44.768;17.206;2023-02-14T10:36:55;24.67;;;16.58;;
36351;SDS011;22382;44.768;17.206;2023-02-14T10:42:36;18.70;;;11.48;;
36351;SDS011;22382;44.768;17.206;2023-02-14T10:50:51;8.90;;;6.07;;
36351;SDS011;22382;44.768;17.206;2023-02-14T10:53:34;10.85;;;7.10;;
36351;SDS011;22382;44.768;17.206;2023-02-14T10:59:19;8.75;;;6.07;;
36351;SDS011;22382;44.768;17.206;2023-02-14T11:01:48;8.50;;;5.43;;
36351;SDS011;22382;44.768;17.206;2023-02-14T11:04:20;7.57;;;5.50;;
36351;SDS011;22382;44.768;17.206;2023-02-14T11:06:49;9.60;;;5.18;;
36351;SDS011;22382;44.768;17.206;2023-02-14T11:09:17;6.35;;;4.30;;
36351;SDS011;22382;44.768;17.206;2023-02-14T11:11:49;7.47;;;4.82;;
36351;SDS011;22382;44.768;17.206;2023-02-14T11:16:54;9.23;;;6.40;;
36351;SDS011;22382;44.768;17.206;2023-02-14T11:19:24;9.82;;;6.78;;
36351;SDS011;22382;44.768;17.206;2023-02-14T11:21:55;8.98;;;5.70;;
36351;SDS011;22382;44.768;17.206;2023-02-14T11:24:28;9.73;;;5.63;;
36351;SDS011;22382;44.768;17.206;2023-02-14T11:26:58;12.05;;;5.85;;
36351;SDS011;22382;44.768;17.206;2023-02-14T11:29:30;7.28;;;5.22;;
36351;SDS011;22382;44.768;17.206;2023-02-14T11:32:08;11.30;;;6.10;;
36351;SDS011;22382;44.768;17.206;2023-02-14T11:34:40;8.35;;;5.88;;
36351;SDS011;22382;44.768;17.206;2023-02-14T11:37:16;10.30;;;4.90;;
36351;SDS011;22382;44.768;17.206;2023-02-14T11:39:50;6.43;;;4.47;;
36351;SDS011;22382;44.768;17.206;2023-02-14T11:42:34;7.18;;;4.90;;
36351;SDS011;22382;44.768;17.206;2023-02-14T11:48:36;8.85;;;5.07;;
36351;SDS011;22382;44.768;17.206;2023-02-14T11:51:00;11.23;;;7.77;;
36351;SDS011;22382;44.768;17.206;2023-02-14T11:53:53;9.48;;;4.32;;
36351;SDS011;22382;44.768;17.206;2023-02-14T11:56:22;6.05;;;4.40;;
36351;SDS011;22382;44.768;17.206;2023-02-14T11:58:53;7.60;;;5.05;;
36351;SDS011;22382;44.768;17.206;2023-02-14T12:01:31;8.13;;;5.30;;
36351;SDS011;22382;44.768;17.206;2023-02-14T12:04:12;8.05;;;6.18;;
36351;SDS011;22382;44.768;17.206;2023-02-14T12:06:45;6.85;;;5.18;;
36351;SDS011;22382;44.768;17.206;2023-02-14T12:12:02;6.93;;;5.30;;
36351;SDS011;22382;44.768;17.206;2023-02-14T12:14:40;11.20;;;5.93;;
36351;SDS011;22382;44.768;17.206;2023-02-14T12:22:32;8.63;;;6.15;;
36351;SDS011;22382;44.768;17.206;2023-02-14T12:25:15;8.35;;;6.00;;
36351;SDS011;22382;44.768;17.206;2023-02-14T12:27:51;8.48;;;5.57;;
36351;SDS011;22382;44.768;17.206;2023-02-14T12:30:27;13.15;;;7.10;;
36351;SDS011;22382;44.768;17.206;2023-02-14T12:32:57;10.93;;;6.95;;
36351;SDS011;22382;44.768;17.206;2023-02-14T12:43:54;16.55;;;9.15;;
36351;SDS011;22382;44.768;17.206;2023-02-14T13:06:03;14.02;;;9.50;;
36351;SDS011;22382;44.768;17.206;2023-02-14T13:09:01;14.23;;;8.70;;
36351;SDS011;22382;44.768;17.206;2023-02-14T13:11:38;15.30;;;7.75;;
36351;SDS011;22382;44.768;17.206;2023-02-14T13:20:21;10.48;;;6.78;;
36351;SDS011;22382;44.768;17.206;2023-02-14T13:23:15;11.63;;;7.85;;
36351;SDS011;22382;44.768;17.206;2023-02-14T13:25:55;10.63;;;6.97;;
36351;SDS011;22382;44.768;17.206;2023-02-14T13:29:03;9.52;;;7.13;;
36351;SDS011;22382;44.768;17.206;2023-02-14T13:31:35;14.68;;;7.75;;
36351;SDS011;22382;44.768;17.206;2023-02-14T13:34:23;17.27;;;9.05;;
36351;SDS011;22382;44.768;17.206;2023-02-14T13:36:58;13.32;;;8.80;;
36351;SDS011;22382;44.768;17.206;2023-02-14T13:39:30;12.60;;;8.75;;
36351;SDS011;22382;44.768;17.206;2023-02-14T13:42:04;10.52;;;6.90;;
36351;SDS011;22382;44.768;17.206;2023-02-14T13:47:22;17.13;;;8.25;;
36351;SDS011;22382;44.768;17.206;2023-02-14T13:49:55;13.48;;;9.48;;
36351;SDS011;22382;44.768;17.206;2023-02-14T13:55:12;10.73;;;7.45;;
36351;SDS011;22382;44.768;17.206;2023-02-14T13:58:03;10.23;;;7.20;;
36351;SDS011;22382;44.768;17.206;2023-02-14T14:03:06;14.93;;;7.22;;
36351;SDS011;22382;44.768;17.206;2023-02-14T14:06:02;8.80;;;6.53;;
36351;SDS011;22382;44.768;17.206;2023-02-14T14:08:35;10.93;;;6.85;;
36351;SDS011;22382;44.768;17.206;2023-02-14T14:16:33;10.07;;;7.13;;
36351;SDS011;22382;44.768;17.206;2023-02-14T14:22:06;12.95;;;7.43;;
36351;SDS011;22382;44.768;17.206;2023-02-14T14:27:16;8.15;;;5.95;;
36351;SDS011;22382;44.768;17.206;2023-02-14T14:30:14;10.57;;;6.72;;
36351;SDS011;22382;44.768;17.206;2023-02-14T14:33:13;10.90;;;6.60;;
36351;SDS011;22382;44.768;17.206;2023-02-14T14:35:58;9.02;;;6.60;;
36351;SDS011;22382;44.768;17.206;2023-02-14T14:38:33;10.73;;;7.20;;
36351;SDS011;22382;44.768;17.206;2023-02-14T14:41:12;12.35;;;7.93;;
36351;SDS011;22382;44.768;17.206;2023-02-14T14:43:44;9.82;;;7.60;;
36351;SDS011;22382;44.768;17.206;2023-02-14T14:46:19;10.18;;;6.80;;
36351;SDS011;22382;44.768;17.206;2023-02-14T14:48:52;11.13;;;6.93;;
36351;SDS011;22382;44.768;17.206;2023-02-14T14:51:27;12.93;;;7.38;;
36351;SDS011;22382;44.768;17.206;2023-02-14T14:56:24;9.70;;;7.35;;
36351;SDS011;22382;44.768;17.206;2023-02-14T14:58:54;16.73;;;10.35;;
36351;SDS011;22382;44.768;17.206;2023-02-14T15:01:38;12.75;;;8.32;;
36351;SDS011;22382;44.768;17.206;2023-02-14T15:04:17;10.30;;;7.10;;
36351;SDS011;22382;44.768;17.206;2023-02-14T15:06:54;14.32;;;7.90;;
36351;SDS011;22382;44.768;17.206;2023-02-14T15:09:30;12.63;;;7.25;;
36351;SDS011;22382;44.768;17.206;2023-02-14T15:12:02;8.80;;;6.72;;
36351;SDS011;22382;44.768;17.206;2023-02-14T15:14:51;13.75;;;8.73;;
36351;SDS011;22382;44.768;17.206;2023-02-14T15:17:24;10.45;;;6.80;;
36351;SDS011;22382;44.768;17.206;2023-02-14T15:19:55;13.93;;;8.07;;
36351;SDS011;22382;44.768;17.206;2023-02-14T15:22:34;10.00;;;7.05;;
36351;SDS011;22382;44.768;17.206;2023-02-14T15:25:11;13.52;;;8.00;;
36351;SDS011;22382;44.768;17.206;2023-02-14T15:27:43;15.45;;;8.32;;
36351;SDS011;22382;44.768;17.206;2023-02-14T15:32:54;13.10;;;8.20;;
36351;SDS011;22382;44.768;17.206;2023-02-14T15:35:24;14.07;;;8.35;;
36351;SDS011;22382;44.768;17.206;2023-02-14T15:37:57;12.73;;;8.48;;
36351;SDS011;22382;44.768;17.206;2023-02-14T15:40:28;14.65;;;9.27;;
36351;SDS011;22382;44.768;17.206;2023-02-14T15:45:44;11.63;;;8.50;;
36351;SDS011;22382;44.768;17.206;2023-02-14T15:50:59;15.02;;;9.88;;
36351;SDS011;22382;44.768;17.206;2023-02-14T15:53:44;15.13;;;10.77;;
36351;SDS011;22382;44.768;17.206;2023-02-14T15:56:25;21.50;;;12.50;;
36351;SDS011;22382;44.768;17.206;2023-02-14T15:58:59;13.98;;;9.13;;
36351;SDS011;22382;44.768;17.206;2023-02-14T16:01:27;16.50;;;9.60;;
36351;SDS011;22382;44.768;17.206;2023-02-14T16:04:00;16.95;;;9.50;;
36351;SDS011;22382;44.768;17.206;2023-02-14T16:06:34;15.02;;;9.23;;
36351;SDS011;22382;44.768;17.206;2023-02-14T16:09:25;20.00;;;12.02;;
36351;SDS011;22382;44.768;17.206;2023-02-14T16:11:54;22.63;;;11.93;;
36351;SDS011;22382;44.768;17.206;2023-02-14T16:14:31;18.73;;;12.63;;
36351;SDS011;22382;44.768;17.206;2023-02-14T16:17:06;19.17;;;12.35;;
36351;SDS011;22382;44.768;17.206;2023-02-14T16:19:41;19.02;;;12.48;;
36351;SDS011;22382;44.768;17.206;2023-02-14T16:22:23;23.60;;;13.55;;
36351;SDS011;22382;44.768;17.206;2023-02-14T16:24:57;22.95;;;12.77;;
36351;SDS011;22382;44.768;17.206;2023-02-14T16:27:24;18.42;;;11.98;;
36351;SDS011;22382;44.768;17.206;2023-02-14T16:29:52;19.10;;;11.95;;
36351;SDS011;22382;44.768;17.206;2023-02-14T16:32:19;19.60;;;12.32;;
36351;SDS011;22382;44.768;17.206;2023-02-14T16:34:48;22.30;;;12.60;;
36351;SDS011;22382;44.768;17.206;2023-02-14T16:39:51;31.75;;;17.15;;
36351;SDS011;22382;44.768;17.206;2023-02-14T16:42:20;42.83;;;23.20;;
36351;SDS011;22382;44.768;17.206;2023-02-14T16:44:47;46.67;;;24.40;;
36351;SDS011;22382;44.768;17.206;2023-02-14T16:47:16;53.58;;;29.95;;
36351;SDS011;22382;44.768;17.206;2023-02-14T16:49:45;76.15;;;42.33;;
36351;SDS011;22382;44.768;17.206;2023-02-14T16:52:13;61.10;;;33.13;;
36351;SDS011;22382;44.768;17.206;2023-02-14T16:54:51;59.60;;;31.90;;
36351;SDS011;22382;44.768;17.206;2023-02-14T16:57:22;58.22;;;32.03;;
36351;SDS011;22382;44.768;17.206;2023-02-14T16:59:56;58.25;;;35.10;;
36351;SDS011;22382;44.768;17.206;2023-02-14T17:02:23;57.88;;;32.88;;
36351;SDS011;22382;44.768;17.206;2023-02-14T17:04:54;56.75;;;33.33;;
36351;SDS011;22382;44.768;17.206;2023-02-14T17:07:21;62.97;;;35.22;;
36351;SDS011;22382;44.768;17.206;2023-02-14T17:09:50;70.80;;;38.70;;
36351;SDS011;22382;44.768;17.206;2023-02-14T17:12:21;76.50;;;42.05;;
36351;SDS011;22382;44.768;17.206;2023-02-14T17:14:52;90.35;;;47.15;;
36351;SDS011;22382;44.768;17.206;2023-02-14T17:17:21;82.18;;;43.72;;